createdAt,value
2018-04-14T00:01:18.509Z,13.87
2018-04-14T00:03:46.345Z,7.73
2018-04-14T00:06:14.221Z,12.60
2018-04-14T00:08:42.900Z,10.90
2018-04-14T00:11:10.816Z,7.57
2018-04-14T00:13:38.628Z,11.60
2018-04-14T00:16:07.762Z,7.80
2018-04-14T00:18:35.582Z,9.00
2018-04-14T00:21:03.424Z,5.20
2018-04-14T00:23:31.283Z,10.90
2018-04-14T00:25:59.126Z,7.67
2018-04-14T00:28:27.695Z,12.67
2018-04-14T00:30:55.549Z,9.00
2018-04-14T00:33:23.343Z,12.60
2018-04-14T00:35:51.156Z,12.17
2018-04-14T00:38:18.947Z,10.77
2018-04-14T00:40:46.789Z,12.37
2018-04-14T00:43:14.590Z,12.23
2018-04-14T00:45:42.350Z,10.80
2018-04-14T00:48:10.134Z,9.57
2018-04-14T00:50:38.010Z,10.20
2018-04-14T00:53:17.642Z,9.53
2018-04-14T00:55:45.486Z,8.43
2018-04-14T00:58:13.434Z,10.00
2018-04-14T01:00:41.302Z,9.40
2018-04-14T01:03:10.031Z,9.03
2018-04-14T01:05:45.861Z,11.93
2018-04-14T01:08:13.647Z,6.97
2018-04-14T01:10:41.425Z,6.30
2018-04-14T01:13:09.277Z,9.83
2018-04-14T01:15:37.118Z,15.73
2018-04-14T01:18:05.089Z,9.10
2018-04-14T01:20:32.957Z,6.83
2018-04-14T01:23:00.797Z,8.03
2018-04-14T01:25:28.747Z,9.20
2018-04-14T01:27:56.582Z,10.83
2018-04-14T01:30:24.400Z,9.37
2018-04-14T01:32:52.941Z,8.60
2018-04-14T01:35:20.771Z,8.47
2018-04-14T01:37:49.409Z,9.03
2018-04-14T01:40:17.237Z,11.63
2018-04-14T01:42:45.129Z,10.00
2018-04-14T01:45:12.992Z,6.53
2018-04-14T01:47:40.796Z,12.27
2018-04-14T01:50:08.716Z,8.10
2018-04-14T01:52:36.631Z,9.97
2018-04-14T01:55:04.515Z,16.20
2018-04-14T01:57:32.560Z,11.93
2018-04-14T02:00:00.420Z,7.90
2018-04-14T02:02:28.283Z,11.37
2018-04-14T02:04:56.101Z,12.33
2018-04-14T02:07:23.907Z,9.70
2018-04-14T02:09:51.782Z,7.03
2018-04-14T02:12:19.565Z,7.83
2018-04-14T02:14:47.387Z,4.90
2018-04-14T02:17:16.012Z,6.30
2018-04-14T02:19:43.815Z,5.30
2018-04-14T02:22:11.625Z,7.10
2018-04-14T02:24:39.428Z,10.27
2018-04-14T02:27:07.246Z,7.00
2018-04-14T02:29:35.817Z,11.37
2018-04-14T02:32:03.649Z,6.37
2018-04-14T02:34:31.436Z,10.13
2018-04-14T02:36:59.314Z,11.07
2018-04-14T02:39:27.867Z,7.73
2018-04-14T02:41:55.677Z,7.07
2018-04-14T02:44:23.430Z,14.40
2018-04-14T02:46:51.229Z,10.70
2018-04-14T02:49:18.998Z,13.73
2018-04-14T02:51:47.552Z,5.00
2018-04-14T02:54:15.395Z,10.43
2018-04-14T02:56:43.205Z,7.33
2018-04-14T02:59:11.766Z,12.00
2018-04-14T03:01:40.603Z,8.63
2018-04-14T03:04:08.439Z,6.70
2018-04-14T03:06:36.217Z,9.03
2018-04-14T03:09:05.575Z,7.93
2018-04-14T03:11:33.328Z,5.10
2018-04-14T03:14:01.099Z,5.60
2018-04-14T03:16:28.933Z,6.40
2018-04-14T03:18:57.575Z,7.80
2018-04-14T03:21:25.449Z,8.83
2018-04-14T03:23:53.314Z,10.23
2018-04-14T03:26:21.308Z,9.47
2018-04-14T03:28:49.836Z,8.73
2018-04-14T03:31:17.654Z,14.67
2018-04-14T03:33:45.485Z,8.10
2018-04-14T03:36:13.268Z,10.30
2018-04-14T03:38:41.082Z,9.23
2018-04-14T03:41:09.704Z,7.80
2018-04-14T03:43:37.532Z,10.50
2018-04-14T03:46:06.120Z,11.30
2018-04-14T03:48:34.734Z,10.53
2018-04-14T03:51:02.562Z,11.20
2018-04-14T03:53:30.454Z,9.80
2018-04-14T03:55:59.012Z,6.30
2018-04-14T03:58:27.035Z,12.60
2018-04-14T04:00:54.842Z,10.23
2018-04-14T04:03:22.584Z,10.10
2018-04-14T04:05:50.379Z,8.53
2018-04-14T04:08:18.197Z,12.13
2018-04-14T04:10:45.975Z,6.93
2018-04-14T04:13:13.738Z,16.20
2018-04-14T04:15:41.603Z,8.70
2018-04-14T04:18:09.428Z,10.13
2018-04-14T04:21:02.850Z,7.20
2018-04-14T04:23:49.131Z,7.10
2018-04-14T04:26:16.972Z,10.70
2018-04-14T04:28:45.555Z,13.23
2018-04-14T04:31:16.935Z,21.53
2018-04-14T04:33:44.756Z,18.17
2018-04-14T04:36:12.584Z,13.20
2018-04-14T04:38:40.395Z,18.27
2018-04-14T04:41:08.160Z,24.20
2018-04-14T04:43:36.730Z,11.20
2018-04-14T04:46:04.534Z,11.40
2018-04-14T04:48:32.332Z,7.37
2018-04-14T04:51:00.059Z,12.77
2018-04-14T04:53:27.807Z,11.63
2018-04-14T04:55:55.594Z,10.53
2018-04-14T04:58:23.371Z,17.97
2018-04-14T05:00:51.126Z,9.00
2018-04-14T05:03:18.886Z,7.33
2018-04-14T05:05:46.677Z,6.80
2018-04-14T05:08:15.729Z,8.20
2018-04-14T05:10:45.878Z,9.83
2018-04-14T05:13:16.980Z,9.40
2018-04-14T05:15:47.755Z,10.70
2018-04-14T05:18:18.734Z,8.63
2018-04-14T05:20:48.908Z,10.40
2018-04-14T05:23:19.946Z,12.83
2018-04-14T05:25:50.492Z,14.13
2018-04-14T05:28:22.283Z,11.97
2018-04-14T05:30:52.254Z,9.30
2018-04-14T05:33:23.043Z,9.73
2018-04-14T05:35:53.834Z,10.53
2018-04-14T05:38:23.753Z,16.40
2018-04-14T05:40:55.199Z,9.23
2018-04-14T05:43:25.899Z,11.00
2018-04-14T05:45:56.391Z,11.27
2018-04-14T05:48:27.024Z,12.43
2018-04-14T05:50:57.590Z,19.13
2018-04-14T05:53:27.793Z,10.40
2018-04-14T05:55:58.240Z,9.47
2018-04-14T05:58:27.703Z,10.80
2018-04-14T06:00:57.526Z,9.10
2018-04-14T06:03:27.658Z,11.73
2018-04-14T06:05:58.152Z,13.20
2018-04-14T06:08:27.798Z,17.53
2018-04-14T06:10:58.521Z,12.00
2018-04-14T06:13:28.242Z,18.83
2018-04-14T06:15:59.225Z,14.07
2018-04-14T06:18:28.968Z,14.93
2018-04-14T06:20:57.869Z,15.57
2018-04-14T06:23:26.177Z,15.73
2018-04-14T06:25:54.125Z,20.90
2018-04-14T06:28:22.451Z,14.73
2018-04-14T06:30:51.661Z,19.03
2018-04-14T06:33:19.515Z,14.87
2018-04-14T06:35:49.060Z,22.07
2018-04-14T06:38:17.413Z,19.63
2018-04-14T06:40:46.567Z,19.37
2018-04-14T06:43:15.473Z,16.67
2018-04-14T06:45:44.108Z,18.80
2018-04-14T06:48:13.071Z,20.63
2018-04-14T06:50:41.643Z,22.80
2018-04-14T06:53:09.466Z,21.13
2018-04-14T06:55:37.355Z,16.83
2018-04-14T06:58:05.218Z,20.67
2018-04-14T07:00:33.030Z,24.50
2018-04-14T07:03:00.808Z,24.20
2018-04-14T07:05:29.421Z,26.33
2018-04-14T07:07:57.252Z,24.80
2018-04-14T07:10:25.110Z,32.80
2018-04-14T07:12:52.906Z,24.27
2018-04-14T07:15:20.686Z,21.57
2018-04-14T07:17:48.442Z,20.00
2018-04-14T07:20:16.187Z,32.93
2018-04-14T07:22:44.663Z,29.40
2018-04-14T07:25:12.394Z,33.03
2018-04-14T07:27:40.252Z,28.80
2018-04-14T07:30:09.450Z,35.57
2018-04-14T07:32:37.301Z,28.83
2018-04-14T07:35:06.415Z,28.20
2018-04-14T07:37:36.331Z,27.50
2018-04-14T07:40:06.430Z,28.93
2018-04-14T07:42:34.457Z,27.50
2018-04-14T07:45:02.370Z,24.23
2018-04-14T07:47:30.313Z,36.93
2018-04-14T07:49:58.187Z,25.67
2018-04-14T07:52:26.865Z,31.77
2018-04-14T07:54:54.885Z,28.00
2018-04-14T07:57:22.739Z,28.63
2018-04-14T08:00:02.605Z,29.67
2018-04-14T08:02:31.739Z,39.67
2018-04-14T08:04:59.560Z,30.30
2018-04-14T08:07:27.364Z,34.27
2018-04-14T08:09:55.489Z,31.13
2018-04-14T08:12:23.377Z,27.33
2018-04-14T08:14:51.190Z,33.87
2018-04-14T08:17:19.111Z,31.27
2018-04-14T08:19:46.919Z,29.63
2018-04-14T08:22:15.527Z,28.40
2018-04-14T08:24:43.481Z,26.10
2018-04-14T08:27:12.123Z,25.33
2018-04-14T08:29:40.665Z,24.60
2018-04-14T08:32:09.858Z,21.67
2018-04-14T08:34:37.674Z,19.43
2018-04-14T08:37:05.583Z,23.03
2018-04-14T08:39:34.012Z,25.60
2018-04-14T08:44:40.959Z,18.57
2018-04-14T08:47:09.572Z,20.87
2018-04-14T08:49:37.614Z,15.30
2018-04-14T08:52:05.544Z,22.47
2018-04-14T08:54:34.195Z,24.67
2018-04-14T08:57:02.134Z,20.90
2018-04-14T08:59:29.899Z,24.00
2018-04-14T09:01:59.508Z,16.93
2018-04-14T09:04:27.422Z,22.83
2018-04-14T09:06:57.511Z,25.13
2018-04-14T09:09:27.839Z,20.60
2018-04-14T09:11:55.608Z,23.70
2018-04-14T09:14:23.475Z,23.23
2018-04-14T09:16:52.309Z,26.93
2018-04-14T09:19:26.025Z,24.40
2018-04-14T09:21:55.489Z,21.37
2018-04-14T09:24:27.147Z,19.73
2018-04-14T09:27:00.591Z,25.30
2018-04-14T09:29:28.705Z,17.93
2018-04-14T09:32:02.660Z,25.37
2018-04-14T09:34:33.798Z,21.70
2018-04-14T09:37:06.395Z,25.37
2018-04-14T09:58:18.402Z,13.00
2018-04-14T10:00:51.682Z,21.43
2018-04-14T10:03:24.198Z,18.80
2018-04-14T10:05:53.842Z,19.67
2018-04-14T10:08:21.722Z,20.07
2018-04-14T10:10:49.883Z,20.73
2018-04-14T10:13:21.342Z,19.80
2018-04-14T10:16:05.031Z,14.23
2018-04-14T10:18:37.954Z,22.67
2018-04-14T10:21:07.165Z,22.07
2018-04-14T10:23:35.819Z,14.97
2018-04-14T10:26:06.080Z,19.83
2018-04-14T10:28:34.633Z,16.83
2018-04-14T10:31:02.402Z,11.93
2018-04-14T10:33:30.181Z,12.77
2018-04-14T10:35:58.889Z,14.43
2018-04-14T10:38:27.427Z,19.83
2018-04-14T10:40:55.251Z,23.60
2018-04-14T10:43:25.543Z,19.10
2018-04-14T10:45:53.428Z,14.03
2018-04-14T10:48:31.524Z,9.53
2018-04-14T10:54:44.884Z,12.70
2018-04-14T10:57:12.670Z,12.10
2018-04-14T10:59:41.274Z,12.47
2018-04-14T11:02:09.037Z,10.40
2018-04-14T11:04:36.968Z,17.40
2018-04-14T11:07:21.198Z,14.00
2018-04-14T11:09:49.002Z,9.03
2018-04-14T11:12:16.884Z,5.53
2018-04-14T11:14:44.727Z,11.50
2018-04-14T11:17:12.726Z,7.03
2018-04-14T11:19:41.251Z,9.70
2018-04-14T11:22:09.031Z,5.33
2018-04-14T11:24:36.868Z,7.77
2018-04-14T11:27:04.641Z,8.27
2018-04-14T11:29:32.478Z,13.13
2018-04-14T11:32:01.037Z,7.27
2018-04-14T11:34:28.850Z,9.87
2018-04-14T11:37:07.577Z,11.37
2018-04-14T11:39:36.169Z,13.23
2018-04-14T11:42:04.467Z,7.13
2018-04-14T11:44:33.740Z,5.53
2018-04-14T11:47:01.721Z,11.40
2018-04-14T11:49:31.669Z,8.50
2018-04-14T11:52:00.758Z,8.50
2018-04-14T11:54:28.677Z,13.10
2018-04-14T11:56:56.893Z,8.93
2018-04-14T11:59:25.222Z,8.80
2018-04-14T12:01:53.501Z,12.87
2018-04-14T12:04:23.529Z,14.97
2018-04-14T12:06:52.963Z,12.67
2018-04-14T12:09:22.772Z,9.43
2018-04-14T12:11:51.552Z,15.00
2018-04-14T12:14:21.130Z,8.47
2018-04-14T12:16:49.677Z,9.27
2018-04-14T12:19:18.614Z,10.30
2018-04-14T12:21:47.056Z,10.67
2018-04-14T12:24:16.406Z,10.10
2018-04-14T12:26:46.636Z,8.87
2018-04-14T12:29:15.864Z,18.93
2018-04-14T12:31:44.150Z,8.43
2018-04-14T12:34:13.815Z,11.80
2018-04-14T12:36:42.070Z,10.37
2018-04-14T12:39:30.302Z,10.60
2018-04-14T12:42:16.769Z,15.43
2018-04-14T12:45:32.956Z,9.33
2018-04-14T12:48:01.115Z,8.87
2018-04-14T12:50:32.325Z,10.80
2018-04-14T12:53:04.398Z,8.53
2018-04-14T12:55:33.363Z,10.30
2018-04-14T12:58:04.371Z,8.57
2018-04-14T13:00:36.527Z,6.13
2018-04-14T13:03:05.460Z,7.80
2018-04-14T13:05:35.025Z,9.47
2018-04-14T13:08:05.645Z,6.47
2018-04-14T13:10:37.867Z,10.10
2018-04-14T13:13:11.866Z,11.50
2018-04-14T13:15:40.810Z,9.27
2018-04-14T13:21:44.105Z,7.20
2018-04-14T13:24:13.295Z,7.00
